createdAt,value
2018-08-25T00:02:01.659Z,12.10
2018-08-25T00:04:29.692Z,12.10
2018-08-25T00:06:57.531Z,12.10
2018-08-25T00:09:27.973Z,12.10
2018-08-25T00:11:55.960Z,12.10
2018-08-25T00:14:25.074Z,12.10
2018-08-25T00:16:53.600Z,12.00
2018-08-25T00:19:23.888Z,12.00
2018-08-25T00:21:52.087Z,12.00
2018-08-25T00:24:20.470Z,12.00
2018-08-25T00:26:48.996Z,11.90
2018-08-25T00:29:16.647Z,11.90
2018-08-25T00:31:45.441Z,11.80
2018-08-25T00:34:12.888Z,11.70
2018-08-25T00:36:40.925Z,11.70
2018-08-25T00:39:08.588Z,11.70
2018-08-25T00:41:36.496Z,11.70
2018-08-25T00:44:04.417Z,11.70
2018-08-25T00:46:32.310Z,11.70
2018-08-25T00:48:59.959Z,11.70
2018-08-25T00:51:27.613Z,11.60
2018-08-25T00:53:55.188Z,11.60
2018-08-25T00:56:22.740Z,11.50
2018-08-25T00:58:51.629Z,11.40
2018-08-25T01:01:19.843Z,11.40
2018-08-25T01:03:47.369Z,11.30
2018-08-25T01:06:14.851Z,11.30
2018-08-25T01:08:42.745Z,11.30
2018-08-25T01:11:10.448Z,11.20
2018-08-25T01:13:39.595Z,11.20
2018-08-25T01:16:07.199Z,11.10
2018-08-25T01:18:34.748Z,11.20
2018-08-25T01:21:02.633Z,11.10
2018-08-25T01:23:30.204Z,11.10
2018-08-25T01:25:58.426Z,11.10
2018-08-25T01:28:26.922Z,11.00
2018-08-25T01:30:55.161Z,11.00
2018-08-25T01:33:25.020Z,11.00
2018-08-25T01:35:53.734Z,11.00
2018-08-25T01:38:24.742Z,10.90
2018-08-25T01:40:53.979Z,10.80
2018-08-25T01:43:21.837Z,10.80
2018-08-25T01:45:50.040Z,10.80
2018-08-25T01:48:18.903Z,10.70
2018-08-25T01:51:10.126Z,10.70
2018-08-25T01:53:38.575Z,10.70
2018-08-25T01:56:06.564Z,10.70
2018-08-25T02:01:28.351Z,10.70
2018-08-25T02:03:55.991Z,10.60
2018-08-25T02:06:23.557Z,10.60
2018-08-25T02:08:51.029Z,10.60
2018-08-25T02:11:18.682Z,10.60
2018-08-25T02:13:47.151Z,10.60
2018-08-25T02:16:16.534Z,10.60
2018-08-25T02:18:44.774Z,10.60
2018-08-25T02:21:13.489Z,10.60
2018-08-25T02:23:42.287Z,10.50
2018-08-25T02:26:11.091Z,10.50
2018-08-25T02:28:39.913Z,10.50
2018-08-25T02:31:29.672Z,10.50
2018-08-25T02:33:57.212Z,10.50
2018-08-25T02:36:26.000Z,10.60
2018-08-25T02:38:53.806Z,10.60
2018-08-25T02:41:21.552Z,10.60
2018-08-25T02:43:50.011Z,10.70
2018-08-25T02:46:18.603Z,10.60
2018-08-25T02:48:46.470Z,10.70
2018-08-25T02:51:16.581Z,10.70
2018-08-25T02:53:44.287Z,10.70
2018-08-25T02:56:13.022Z,10.70
2018-08-25T02:58:40.894Z,10.70
2018-08-25T03:01:08.724Z,10.70
2018-08-25T03:06:30.255Z,10.70
2018-08-25T03:09:00.055Z,10.70
2018-08-25T03:11:34.121Z,10.70
2018-08-25T03:14:07.661Z,10.70
2018-08-25T03:16:36.029Z,10.70
2018-08-25T03:19:04.587Z,10.70
2018-08-25T03:21:32.530Z,10.70
2018-08-25T03:24:00.467Z,10.70
2018-08-25T03:26:28.378Z,10.60
2018-08-25T03:28:57.093Z,10.50
2018-08-25T03:31:24.920Z,10.50
2018-08-25T03:33:53.175Z,10.50
2018-08-25T03:36:22.018Z,10.50
2018-08-25T03:38:50.777Z,10.50
2018-08-25T03:41:19.244Z,10.40
2018-08-25T03:43:52.517Z,10.40
2018-08-25T03:46:24.533Z,10.30
2018-08-25T03:48:52.561Z,10.40
2018-08-25T03:51:20.329Z,10.30
2018-08-25T03:53:50.833Z,10.30
2018-08-25T03:56:18.970Z,10.30
2018-08-25T03:58:46.943Z,10.30
2018-08-25T04:01:14.431Z,10.30
2018-08-25T04:03:42.099Z,10.40
2018-08-25T04:06:11.125Z,10.40
2018-08-25T04:08:39.569Z,10.40
2018-08-25T04:11:07.697Z,10.40
2018-08-25T04:13:35.275Z,10.40
2018-08-25T04:16:02.959Z,10.40
2018-08-25T04:18:32.574Z,10.40
2018-08-25T04:21:00.501Z,10.40
2018-08-25T04:23:29.272Z,10.40
2018-08-25T04:25:57.019Z,10.40
2018-08-25T04:28:24.953Z,10.40
2018-08-25T04:30:52.868Z,10.40
2018-08-25T04:33:21.758Z,10.40
2018-08-25T04:35:52.508Z,10.40
2018-08-25T04:38:20.581Z,10.40
2018-08-25T04:40:48.673Z,10.40
2018-08-25T04:43:16.730Z,10.50
2018-08-25T04:45:44.593Z,10.50
2018-08-25T04:48:12.448Z,10.50
2018-08-25T04:50:40.944Z,10.50
2018-08-25T04:53:08.968Z,10.50
2018-08-25T04:55:37.384Z,10.50
2018-08-25T04:58:06.165Z,10.40
2018-08-25T05:00:34.557Z,10.50
2018-08-25T05:03:02.405Z,10.50
2018-08-25T05:05:31.194Z,10.40
2018-08-25T05:07:59.011Z,10.40
2018-08-25T05:10:27.879Z,10.50
2018-08-25T05:12:56.576Z,10.50
2018-08-25T05:15:24.591Z,10.50
2018-08-25T05:17:52.271Z,10.60
2018-08-25T05:20:20.057Z,10.80
2018-08-25T05:22:48.730Z,11.00
2018-08-25T05:25:16.852Z,11.20
2018-08-25T05:27:44.915Z,11.60
2018-08-25T05:30:13.191Z,11.90
2018-08-25T05:32:41.040Z,12.10
2018-08-25T05:35:08.629Z,12.20
2018-08-25T05:37:36.432Z,12.10
2018-08-25T05:40:04.376Z,12.00
2018-08-25T05:42:33.088Z,12.00
2018-08-25T05:45:01.037Z,12.00
2018-08-25T05:47:28.781Z,12.10
2018-08-25T05:49:56.587Z,12.10
2018-08-25T05:52:24.341Z,12.10
2018-08-25T05:54:52.921Z,12.10
2018-08-25T05:57:20.890Z,12.20
2018-08-25T05:59:48.583Z,12.30
2018-08-25T06:02:16.386Z,12.30
2018-08-25T06:04:44.065Z,12.30
2018-08-25T06:07:11.886Z,12.30
2018-08-25T06:09:39.605Z,12.30
2018-08-25T06:12:08.819Z,12.20
2018-08-25T06:14:40.223Z,12.20
2018-08-25T06:17:08.119Z,12.20
2018-08-25T06:19:36.532Z,12.20
2018-08-25T06:24:53.344Z,12.30
2018-08-25T06:27:21.498Z,12.40
2018-08-25T06:29:49.276Z,12.50
2018-08-25T06:32:18.937Z,12.60
2018-08-25T07:21:24.507Z,12.60
2018-08-25T07:23:53.330Z,12.00
2018-08-25T07:26:21.175Z,11.90
2018-08-25T07:28:49.188Z,11.90
2018-08-25T07:31:17.447Z,11.90
2018-08-25T07:33:45.799Z,11.90
2018-08-25T07:36:14.247Z,12.00
2018-08-25T07:38:42.256Z,12.10
2018-08-25T07:41:09.905Z,12.20
2018-08-25T07:43:37.837Z,12.10
2018-08-25T07:46:08.258Z,12.20
2018-08-25T07:48:36.203Z,12.30
2018-08-25T07:51:08.297Z,12.30
2018-08-25T07:56:29.473Z,12.30
2018-08-25T07:59:13.168Z,12.40
2018-08-25T08:01:42.938Z,12.40
2018-08-25T08:09:53.529Z,12.40
2018-08-25T08:12:21.311Z,12.40
2018-08-25T08:14:50.660Z,12.40
2018-08-25T08:17:19.166Z,12.40
2018-08-25T08:19:47.139Z,12.30
2018-08-25T08:22:14.869Z,12.30
2018-08-25T08:24:43.114Z,12.30
2018-08-25T08:29:51.917Z,12.40
2018-08-25T08:32:19.466Z,12.20
2018-08-25T08:34:47.641Z,12.20
2018-08-25T08:37:16.730Z,12.30
2018-08-25T08:39:44.751Z,12.30
2018-08-25T08:42:13.430Z,12.30
2018-08-25T08:44:41.309Z,12.40
2018-08-25T08:47:09.008Z,12.50
2018-08-25T08:49:46.455Z,12.40
2018-08-25T08:52:06.924Z,12.50
2018-08-25T08:54:34.664Z,12.50
2018-08-25T08:57:02.408Z,12.60
2018-08-25T08:59:29.964Z,12.70
2018-08-25T09:01:57.628Z,12.80
2018-08-25T09:04:25.414Z,12.90
2018-08-25T09:06:53.056Z,13.00
2018-08-25T09:09:20.680Z,13.00
2018-08-25T09:11:48.368Z,13.00
2018-08-25T09:14:16.101Z,13.00
2018-08-25T09:16:53.581Z,12.90
2018-08-25T09:19:21.466Z,12.90
2018-08-25T09:21:49.047Z,13.00
2018-08-25T09:24:16.617Z,13.00
2018-08-25T09:26:44.255Z,12.80
2018-08-25T09:29:11.936Z,12.80
2018-08-25T09:31:39.886Z,12.90
2018-08-25T09:34:13.508Z,12.90
2018-08-25T09:36:42.233Z,12.90
2018-08-25T09:39:10.831Z,13.00
2018-08-25T09:41:39.419Z,13.10
2018-08-25T09:44:10.338Z,13.10
2018-08-25T09:46:38.742Z,13.20
2018-08-25T09:49:10.370Z,13.30
2018-08-25T09:51:40.696Z,13.30
2018-08-25T09:54:13.931Z,13.40
2018-08-25T09:56:46.714Z,13.50
2018-08-25T09:59:15.751Z,13.40
2018-08-25T10:01:50.683Z,13.40
2018-08-25T10:04:18.286Z,13.40
2018-08-25T10:06:46.040Z,13.30
2018-08-25T10:09:13.731Z,13.00
2018-08-25T10:11:41.299Z,12.70
2018-08-25T10:14:09.544Z,12.40
2018-08-25T10:16:37.245Z,12.30
2018-08-25T10:19:04.979Z,12.20
2018-08-25T10:21:32.587Z,12.20
2018-08-25T10:24:00.175Z,12.10
2018-08-25T10:26:27.660Z,12.10
2018-08-25T10:28:55.569Z,12.20
2018-08-25T10:31:22.945Z,12.30
2018-08-25T10:33:50.591Z,12.40
2018-08-25T10:36:18.068Z,12.50
2018-08-25T10:38:45.570Z,12.50
2018-08-25T10:41:13.081Z,12.70
2018-08-25T10:43:40.533Z,12.80
2018-08-25T10:46:08.059Z,13.00
2018-08-25T10:48:35.497Z,13.10
2018-08-25T10:51:03.149Z,13.30
2018-08-25T10:53:30.818Z,13.70
2018-08-25T10:55:58.680Z,14.00
2018-08-25T10:58:33.426Z,14.30
2018-08-25T11:01:01.370Z,14.60
2018-08-25T11:03:30.991Z,14.90
2018-08-25T11:05:58.716Z,15.10
2018-08-25T11:08:27.147Z,15.50
2018-08-25T11:10:54.619Z,15.70
2018-08-25T11:13:24.040Z,15.80
2018-08-25T11:15:51.543Z,15.80
2018-08-25T11:18:19.711Z,15.70
2018-08-25T11:20:47.842Z,15.60
2018-08-25T11:23:15.254Z,15.60
2018-08-25T11:25:42.757Z,15.40
2018-08-25T11:28:10.445Z,15.30
2018-08-25T11:30:46.349Z,15.50
2018-08-25T11:33:20.427Z,15.70
2018-08-25T11:35:48.519Z,15.80
2018-08-25T11:38:16.169Z,15.80
2018-08-25T11:40:45.358Z,15.90
2018-08-25T11:43:12.895Z,15.90
2018-08-25T11:45:40.555Z,15.80
2018-08-25T11:48:08.547Z,15.70
2018-08-25T11:50:36.324Z,15.40
2018-08-25T11:53:04.373Z,15.30
2018-08-25T11:55:32.332Z,15.30
2018-08-25T11:58:02.976Z,15.30
2018-08-25T12:00:30.624Z,15.30
2018-08-25T12:02:58.186Z,15.30
2018-08-25T12:05:26.468Z,15.40
2018-08-25T12:07:54.092Z,15.50
2018-08-25T12:10:21.651Z,15.80
2018-08-25T12:12:49.295Z,15.90
2018-08-25T12:15:16.869Z,16.00
2018-08-25T12:17:47.879Z,16.00
2018-08-25T12:20:16.931Z,16.00
2018-08-25T12:22:44.619Z,15.90
2018-08-25T12:25:12.208Z,15.80
2018-08-25T12:27:40.161Z,15.60
2018-08-25T12:30:09.679Z,15.60
2018-08-25T12:32:39.635Z,15.50
2018-08-25T12:35:08.546Z,15.50
2018-08-25T12:37:43.066Z,15.40
2018-08-25T12:40:11.494Z,15.40
2018-08-25T12:42:48.723Z,15.50
2018-08-25T12:45:27.961Z,15.70
2018-08-25T12:47:55.799Z,15.80
2018-08-25T12:50:23.497Z,15.80
2018-08-25T12:52:51.441Z,15.90
2018-08-25T12:55:19.129Z,15.90
2018-08-25T12:57:47.846Z,15.80
2018-08-25T13:00:18.636Z,15.90
2018-08-25T13:02:46.786Z,15.90
2018-08-25T13:05:14.211Z,16.20
2018-08-25T13:07:43.123Z,16.60
2018-08-25T13:10:15.436Z,16.50
2018-08-25T13:12:43.801Z,16.40
2018-08-25T13:15:23.722Z,17.10
2018-08-25T13:17:54.660Z,17.30
2018-08-25T13:20:34.031Z,17.00
2018-08-25T13:23:04.504Z,16.50
2018-08-25T13:25:33.350Z,15.90
2018-08-25T13:28:01.107Z,15.50
2018-08-25T13:30:29.484Z,15.20
2018-08-25T13:33:12.882Z,15.10
2018-08-25T13:35:41.014Z,15.00
2018-08-25T13:38:08.925Z,14.70
2018-08-25T13:40:36.519Z,14.40
2018-08-25T13:43:04.093Z,14.20
2018-08-25T13:45:31.676Z,13.90
2018-08-25T13:47:59.201Z,13.70
2018-08-25T13:50:26.850Z,13.50
2018-08-25T13:52:54.526Z,13.30
2018-08-25T13:55:22.106Z,13.30
2018-08-25T13:57:49.613Z,13.60
2018-08-25T14:00:17.137Z,14.50
2018-08-25T14:02:44.759Z,14.90
2018-08-25T14:05:12.271Z,15.20
2018-08-25T14:07:42.148Z,15.40
2018-08-25T14:10:09.632Z,15.90
2018-08-25T14:12:37.117Z,16.40
2018-08-25T14:15:04.799Z,16.80
2018-08-25T14:17:32.360Z,16.60
2018-08-25T14:20:00.101Z,16.40
2018-08-25T14:22:27.622Z,16.50
2018-08-25T14:24:55.178Z,16.50
2018-08-25T14:27:31.564Z,16.50
2018-08-25T14:30:00.878Z,16.50
2018-08-25T14:32:28.952Z,16.50
2018-08-25T14:34:56.585Z,16.30
2018-08-25T14:37:24.175Z,16.30
2018-08-25T14:39:51.904Z,16.30
2018-08-25T14:42:20.116Z,16.30
2018-08-25T14:44:48.281Z,16.50
2018-08-25T14:47:16.197Z,16.70
2018-08-25T14:49:43.756Z,16.80
2018-08-25T14:52:11.257Z,17.00
2018-08-25T14:54:38.923Z,17.50
2018-08-25T14:57:06.789Z,17.70
2018-08-25T14:59:35.186Z,18.00
2018-08-25T15:02:02.736Z,17.90
2018-08-25T15:04:30.408Z,17.60
2018-08-25T15:06:59.006Z,17.70
2018-08-25T15:09:27.635Z,18.00
2018-08-25T15:11:55.359Z,18.10
2018-08-25T15:14:23.807Z,17.90
2018-08-25T15:16:51.342Z,17.70
2018-08-25T15:19:19.414Z,17.60
2018-08-25T15:21:47.186Z,17.30
2018-08-25T15:24:14.758Z,17.10
2018-08-25T15:26:43.263Z,16.90
2018-08-25T15:29:11.073Z,16.90
2018-08-25T15:31:38.859Z,16.90
2018-08-25T15:34:07.981Z,16.80
2018-08-25T15:36:35.603Z,16.60
2018-08-25T15:39:06.625Z,16.50
2018-08-25T15:41:34.185Z,16.40
2018-08-25T15:44:01.804Z,16.30
2018-08-25T15:46:29.390Z,16.30
2018-08-25T15:48:58.858Z,16.30
2018-08-25T15:51:26.637Z,16.30
2018-08-25T15:53:54.105Z,16.40
2018-08-25T15:56:23.002Z,16.70
2018-08-25T15:58:50.628Z,16.90
2018-08-25T16:01:18.722Z,17.20
2018-08-25T16:03:46.335Z,17.10
2018-08-25T16:06:56.974Z,17.10
2018-08-25T16:09:56.448Z,17.00
2018-08-25T17:04:27.089Z,15.30
2018-08-25T17:06:57.025Z,15.20
2018-08-25T17:09:26.540Z,15.10
2018-08-25T17:11:54.864Z,15.00
2018-08-25T17:14:25.584Z,15.00
2018-08-25T17:16:53.475Z,15.00
2018-08-25T17:19:30.634Z,15.00
2018-08-25T18:39:41.953Z,15.20
2018-08-25T18:42:10.355Z,13.30
2018-08-25T18:44:50.160Z,13.20
2018-08-25T18:47:18.600Z,13.20
2018-08-25T18:50:00.783Z,13.10
2018-08-25T18:52:41.669Z,13.10
2018-08-25T18:55:18.409Z,13.00
2018-08-25T18:57:56.368Z,12.90
2018-08-25T19:00:25.696Z,12.80
2018-08-25T19:02:54.396Z,12.70
2018-08-25T19:05:38.692Z,12.70
2018-08-25T19:08:08.651Z,12.60
2018-08-25T19:10:46.345Z,12.60
2018-08-25T19:13:21.137Z,12.50
2018-08-25T19:15:53.074Z,12.50
2018-08-25T19:18:21.398Z,12.40
2018-08-25T19:20:50.657Z,12.40
2018-08-25T19:23:21.097Z,12.30
2018-08-25T19:26:12.150Z,12.30
2018-08-25T19:28:48.993Z,12.30
2018-08-25T19:31:29.791Z,12.20
2018-08-25T19:37:10.874Z,12.20
2018-08-25T19:40:06.020Z,12.20
2018-08-25T19:42:50.157Z,12.10
2018-08-25T19:45:18.898Z,12.00
2018-08-25T19:48:02.391Z,12.00
2018-08-25T19:50:34.790Z,12.00
2018-08-25T19:53:10.039Z,12.00
2018-08-25T19:55:38.878Z,11.90
2018-08-25T19:58:26.565Z,11.90
2018-08-25T20:01:01.894Z,11.90
2018-08-25T20:03:46.249Z,11.80
2018-08-25T20:06:21.237Z,11.80
2018-08-25T20:08:58.774Z,11.70
2018-08-25T20:11:47.309Z,11.60
2018-08-25T20:14:39.824Z,11.60
2018-08-25T20:18:43.689Z,11.50
2018-08-25T20:21:20.778Z,11.50
2018-08-25T20:26:43.630Z,11.40
2018-08-25T20:29:13.602Z,11.40
2018-08-25T20:31:43.797Z,11.30
2018-08-25T20:34:11.851Z,11.30
2018-08-25T20:36:41.341Z,11.30
2018-08-25T20:39:10.057Z,11.30
2018-08-25T20:41:37.957Z,11.20
2018-08-25T20:44:06.068Z,11.20
2018-08-25T20:46:34.339Z,11.10
2018-08-25T20:49:05.495Z,11.10
2018-08-25T20:51:34.246Z,11.10
2018-08-25T20:54:03.499Z,11.10
2018-08-25T20:56:32.265Z,11.10
2018-08-25T20:59:00.390Z,11.10
2018-08-25T21:01:29.569Z,11.00
2018-08-25T21:03:58.607Z,11.00
2018-08-25T21:06:26.760Z,11.00
2018-08-25T21:08:55.385Z,10.90
2018-08-25T21:11:23.416Z,10.90
2018-08-25T21:13:51.335Z,10.90
2018-08-25T21:16:19.824Z,10.90
2018-08-25T21:18:48.461Z,10.80
2018-08-25T21:21:18.470Z,10.80
2018-08-25T21:23:46.974Z,10.80
2018-08-25T21:26:14.738Z,10.80
2018-08-25T21:28:42.530Z,10.90
2018-08-25T21:31:12.580Z,10.90
2018-08-25T21:33:41.055Z,10.90
2018-08-25T21:36:09.080Z,10.90
2018-08-25T21:38:37.542Z,10.90
2018-08-25T21:41:07.230Z,10.90
2018-08-25T21:43:37.723Z,10.90
2018-08-25T21:46:06.046Z,10.80
2018-08-25T21:48:33.984Z,10.90
2018-08-25T21:51:02.637Z,10.80
2018-08-25T21:53:30.263Z,10.80
2018-08-25T21:55:58.170Z,10.70
2018-08-25T21:58:26.097Z,10.70
2018-08-25T22:00:55.418Z,10.70
2018-08-25T22:03:23.993Z,10.70
2018-08-25T22:05:52.591Z,10.60
2018-08-25T22:08:21.167Z,10.60
2018-08-25T22:10:49.931Z,10.70
2018-08-25T22:13:19.257Z,10.70
2018-08-25T22:15:48.151Z,10.70
2018-08-25T22:18:16.213Z,10.70
2018-08-25T22:20:44.069Z,10.80
2018-08-25T22:23:12.557Z,10.80
2018-08-25T22:25:40.478Z,10.80
2018-08-25T22:28:08.344Z,10.80
2018-08-25T22:30:36.153Z,10.80
2018-08-25T22:33:04.158Z,10.80
2018-08-25T22:35:31.899Z,10.80
2018-08-25T22:37:59.716Z,10.80
2018-08-25T22:40:27.503Z,10.90
2018-08-25T22:42:56.378Z,10.90
2018-08-25T22:45:24.019Z,10.90
2018-08-25T22:47:51.962Z,10.90
2018-08-25T22:50:19.609Z,10.90
2018-08-25T22:52:49.987Z,10.90
2018-08-25T22:55:20.116Z,10.90
2018-08-25T22:57:48.827Z,10.90
2018-08-25T23:00:16.627Z,10.80
2018-08-25T23:02:45.513Z,10.80
2018-08-25T23:05:13.803Z,10.80
2018-08-25T23:07:41.711Z,10.80
2018-08-25T23:10:09.736Z,10.80
2018-08-25T23:12:37.442Z,10.80
2018-08-25T23:15:05.329Z,10.80
2018-08-25T23:17:33.066Z,10.80
2018-08-25T23:20:01.034Z,10.80
2018-08-25T23:22:28.912Z,10.80
2018-08-25T23:24:56.780Z,10.70
2018-08-25T23:27:24.762Z,10.70
2018-08-25T23:29:52.428Z,10.70
2018-08-25T23:32:20.444Z,10.60
2018-08-25T23:34:48.942Z,10.60
2018-08-25T23:37:18.299Z,10.60
2018-08-25T23:39:46.192Z,10.50
2018-08-25T23:42:14.268Z,10.50
2018-08-25T23:44:41.855Z,10.50
2018-08-25T23:47:09.715Z,10.50
2018-08-25T23:49:38.027Z,10.40
2018-08-25T23:52:05.923Z,10.40
2018-08-25T23:54:33.968Z,10.40
2018-08-25T23:57:01.662Z,10.30
2018-08-25T23:59:35.972Z,10.30
